sensor_id;sensor_type;location;lat;lon;timestamp;P1;durP1;ratioP1;P2;durP2;ratioP2
13269;SDS011;6703;51.994;7.570;2023-07-31T00:01:04;7.70;;;4.20;;
13269;SDS011;6703;51.994;7.570;2023-07-31T00:03:32;6.70;;;4.25;;
13269;SDS011;6703;51.994;7.570;2023-07-31T00:06:00;8.80;;;3.20;;
13269;SDS011;6703;51.994;7.570;2023-07-31T00:08:28;4.93;;;2.35;;
13269;SDS011;6703;51.994;7.570;2023-07-31T00:10:56;4.18;;;2.72;;
13269;SDS011;6703;51.994;7.570;2023-07-31T00:13:25;4.57;;;2.15;;
13269;SDS011;6703;51.994;7.570;2023-07-31T00:15:52;4.90;;;2.00;;
13269;SDS011;6703;51.994;7.570;2023-07-31T00:18:20;5.03;;;1.60;;
13269;SDS011;6703;51.994;7.570;2023-07-31T00:20:48;4.15;;;1.63;;
13269;SDS011;6703;51.994;7.570;2023-07-31T00:23:16;4.00;;;1.40;;
13269;SDS011;6703;51.994;7.570;2023-07-31T00:25:43;4.05;;;1.40;;
13269;SDS011;6703;51.994;7.570;2023-07-31T00:28:11;2.83;;;1.40;;
13269;SDS011;6703;51.994;7.570;2023-07-31T00:30:40;2.55;;;1.20;;
13269;SDS011;6703;51.994;7.570;2023-07-31T00:33:08;4.65;;;1.27;;
13269;SDS011;6703;51.994;7.570;2023-07-31T00:35:36;2.92;;;1.20;;
13269;SDS011;6703;51.994;7.570;2023-07-31T00:38:03;6.20;;;1.70;;
13269;SDS011;6703;51.994;7.570;2023-07-31T00:40:34;5.53;;;2.00;;
13269;SDS011;6703;51.994;7.570;2023-07-31T00:43:02;3.42;;;1.60;;
13269;SDS011;6703;51.994;7.570;2023-07-31T00:45:30;2.80;;;1.27;;
13269;SDS011;6703;51.994;7.570;2023-07-31T00:48:00;2.33;;;1.00;;
13269;SDS011;6703;51.994;7.570;2023-07-31T00:50:28;1.77;;;1.05;;
13269;SDS011;6703;51.994;7.570;2023-07-31T00:52:56;2.92;;;1.30;;
13269;SDS011;6703;51.994;7.570;2023-07-31T00:55:24;2.33;;;1.27;;
13269;SDS011;6703;51.994;7.570;2023-07-31T00:57:52;2.33;;;1.08;;
13269;SDS011;6703;51.994;7.570;2023-07-31T01:00:22;5.72;;;1.42;;
13269;SDS011;6703;51.994;7.570;2023-07-31T01:02:49;3.03;;;1.10;;
13269;SDS011;6703;51.994;7.570;2023-07-31T01:05:20;7.68;;;1.23;;
13269;SDS011;6703;51.994;7.570;2023-07-31T01:07:54;5.05;;;1.23;;
13269;SDS011;6703;51.994;7.570;2023-07-31T01:10:27;3.20;;;1.10;;
13269;SDS011;6703;51.994;7.570;2023-07-31T01:13:00;3.92;;;1.45;;
13269;SDS011;6703;51.994;7.570;2023-07-31T01:15:28;2.03;;;1.15;;
13269;SDS011;6703;51.994;7.570;2023-07-31T01:17:55;1.63;;;0.90;;
13269;SDS011;6703;51.994;7.570;2023-07-31T01:20:25;6.32;;;1.23;;
13269;SDS011;6703;51.994;7.570;2023-07-31T01:22:58;1.58;;;1.10;;
13269;SDS011;6703;51.994;7.570;2023-07-31T01:25:53;7.38;;;1.40;;
13269;SDS011;6703;51.994;7.570;2023-07-31T01:28:25;2.35;;;1.08;;
13269;SDS011;6703;51.994;7.570;2023-07-31T01:30:56;3.17;;;1.10;;
13269;SDS011;6703;51.994;7.570;2023-07-31T01:33:25;5.22;;;1.30;;
13269;SDS011;6703;51.994;7.570;2023-07-31T01:35:53;3.70;;;1.00;;
13269;SDS011;6703;51.994;7.570;2023-07-31T01:38:21;2.83;;;1.10;;
13269;SDS011;6703;51.994;7.570;2023-07-31T01:40:50;2.10;;;0.90;;
13269;SDS011;6703;51.994;7.570;2023-07-31T01:43:20;1.88;;;1.10;;
13269;SDS011;6703;51.994;7.570;2023-07-31T01:45:47;0.80;;;0.77;;
13269;SDS011;6703;51.994;7.570;2023-07-31T01:48:15;2.53;;;1.00;;
13269;SDS011;6703;51.994;7.570;2023-07-31T01:50:43;2.70;;;1.00;;
13269;SDS011;6703;51.994;7.570;2023-07-31T01:53:11;2.00;;;0.80;;
13269;SDS011;6703;51.994;7.570;2023-07-31T01:55:39;1.42;;;0.88;;
13269;SDS011;6703;51.994;7.570;2023-07-31T01:58:07;0.88;;;0.50;;
13269;SDS011;6703;51.994;7.570;2023-07-31T02:00:36;1.10;;;0.70;;
13269;SDS011;6703;51.994;7.570;2023-07-31T02:03:04;4.55;;;0.60;;
13269;SDS011;6703;51.994;7.570;2023-07-31T02:05:32;0.70;;;0.50;;
13269;SDS011;6703;51.994;7.570;2023-07-31T02:08:00;0.75;;;0.50;;
13269;SDS011;6703;51.994;7.570;2023-07-31T02:10:31;0.60;;;0.45;;
13269;SDS011;6703;51.994;7.570;2023-07-31T02:15:51;1.95;;;0.50;;
13269;SDS011;6703;51.994;7.570;2023-07-31T02:18:19;1.25;;;0.60;;
13269;SDS011;6703;51.994;7.570;2023-07-31T02:20:48;1.80;;;0.50;;
13269;SDS011;6703;51.994;7.570;2023-07-31T02:23:17;1.20;;;0.60;;
13269;SDS011;6703;51.994;7.570;2023-07-31T02:25:45;3.38;;;1.15;;
13269;SDS011;6703;51.994;7.570;2023-07-31T02:28:13;3.50;;;1.50;;
13269;SDS011;6703;51.994;7.570;2023-07-31T02:30:43;4.50;;;1.75;;
13269;SDS011;6703;51.994;7.570;2023-07-31T02:33:13;7.13;;;2.33;;
13269;SDS011;6703;51.994;7.570;2023-07-31T02:35:41;16.25;;;3.97;;
13269;SDS011;6703;51.994;7.570;2023-07-31T02:38:09;13.90;;;3.70;;
13269;SDS011;6703;51.994;7.570;2023-07-31T02:40:37;16.90;;;4.17;;
13269;SDS011;6703;51.994;7.570;2023-07-31T02:43:04;12.10;;;4.63;;
13269;SDS011;6703;51.994;7.570;2023-07-31T02:45:32;18.10;;;5.55;;
13269;SDS011;6703;51.994;7.570;2023-07-31T02:48:00;21.30;;;5.85;;
13269;SDS011;6703;51.994;7.570;2023-07-31T02:50:29;20.38;;;6.10;;
13269;SDS011;6703;51.994;7.570;2023-07-31T02:52:58;22.13;;;6.30;;
13269;SDS011;6703;51.994;7.570;2023-07-31T02:55:26;27.60;;;6.83;;
13269;SDS011;6703;51.994;7.570;2023-07-31T02:57:53;24.52;;;6.75;;
13269;SDS011;6703;51.994;7.570;2023-07-31T03:00:21;24.70;;;6.80;;
13269;SDS011;6703;51.994;7.570;2023-07-31T03:02:49;23.33;;;5.93;;
13269;SDS011;6703;51.994;7.570;2023-07-31T03:05:17;21.70;;;6.85;;
13269;SDS011;6703;51.994;7.570;2023-07-31T03:07:46;33.53;;;7.18;;
13269;SDS011;6703;51.994;7.570;2023-07-31T03:10:14;25.02;;;6.82;;
13269;SDS011;6703;51.994;7.570;2023-07-31T03:12:41;16.98;;;6.28;;
13269;SDS011;6703;51.994;7.570;2023-07-31T03:15:09;19.97;;;6.03;;
13269;SDS011;6703;51.994;7.570;2023-07-31T03:17:38;28.45;;;6.20;;
13269;SDS011;6703;51.994;7.570;2023-07-31T03:20:06;18.55;;;6.28;;
13269;SDS011;6703;51.994;7.570;2023-07-31T03:22:34;21.17;;;6.00;;
13269;SDS011;6703;51.994;7.570;2023-07-31T03:25:04;24.25;;;6.57;;
13269;SDS011;6703;51.994;7.570;2023-07-31T03:27:32;20.42;;;6.00;;
13269;SDS011;6703;51.994;7.570;2023-07-31T03:30:00;22.33;;;6.32;;
13269;SDS011;6703;51.994;7.570;2023-07-31T03:32:28;31.23;;;6.10;;
13269;SDS011;6703;51.994;7.570;2023-07-31T03:34:56;26.08;;;6.25;;
13269;SDS011;6703;51.994;7.570;2023-07-31T03:37:24;20.77;;;5.82;;
13269;SDS011;6703;51.994;7.570;2023-07-31T03:39:52;20.77;;;5.40;;
13269;SDS011;6703;51.994;7.570;2023-07-31T03:42:21;22.88;;;5.70;;
13269;SDS011;6703;51.994;7.570;2023-07-31T03:44:49;22.67;;;5.45;;
13269;SDS011;6703;51.994;7.570;2023-07-31T03:47:16;20.40;;;4.97;;
13269;SDS011;6703;51.994;7.570;2023-07-31T03:49:44;20.63;;;5.60;;
13269;SDS011;6703;51.994;7.570;2023-07-31T03:52:12;19.98;;;4.68;;
13269;SDS011;6703;51.994;7.570;2023-07-31T03:54:40;20.75;;;5.15;;
13269;SDS011;6703;51.994;7.570;2023-07-31T03:57:07;21.75;;;5.72;;
13269;SDS011;6703;51.994;7.570;2023-07-31T03:59:37;22.13;;;4.83;;
13269;SDS011;6703;51.994;7.570;2023-07-31T04:02:05;21.30;;;5.85;;
13269;SDS011;6703;51.994;7.570;2023-07-31T04:04:33;21.52;;;5.05;;
13269;SDS011;6703;51.994;7.570;2023-07-31T04:07:01;26.85;;;5.68;;
13269;SDS011;6703;51.994;7.570;2023-07-31T04:09:29;17.52;;;5.50;;
13269;SDS011;6703;51.994;7.570;2023-07-31T04:11:57;19.92;;;5.40;;
13269;SDS011;6703;51.994;7.570;2023-07-31T04:14:25;21.55;;;5.53;;
13269;SDS011;6703;51.994;7.570;2023-07-31T04:16:54;25.35;;;5.60;;
13269;SDS011;6703;51.994;7.570;2023-07-31T04:19:22;15.93;;;5.13;;
13269;SDS011;6703;51.994;7.570;2023-07-31T04:21:50;26.75;;;6.10;;
13269;SDS011;6703;51.994;7.570;2023-07-31T04:24:18;23.42;;;5.25;;
13269;SDS011;6703;51.994;7.570;2023-07-31T04:26:50;19.40;;;5.60;;
13269;SDS011;6703;51.994;7.570;2023-07-31T04:29:18;29.33;;;5.43;;
13269;SDS011;6703;51.994;7.570;2023-07-31T04:31:47;16.40;;;4.65;;
13269;SDS011;6703;51.994;7.570;2023-07-31T04:34:16;18.13;;;4.68;;
13269;SDS011;6703;51.994;7.570;2023-07-31T04:36:44;31.40;;;5.30;;
13269;SDS011;6703;51.994;7.570;2023-07-31T04:39:11;26.25;;;5.13;;
13269;SDS011;6703;51.994;7.570;2023-07-31T04:41:39;24.10;;;4.75;;
13269;SDS011;6703;51.994;7.570;2023-07-31T04:44:07;20.38;;;4.38;;
13269;SDS011;6703;51.994;7.570;2023-07-31T04:46:37;19.98;;;4.30;;
13269;SDS011;6703;51.994;7.570;2023-07-31T04:49:05;14.17;;;4.73;;
13269;SDS011;6703;51.994;7.570;2023-07-31T04:51:34;21.73;;;4.75;;
13269;SDS011;6703;51.994;7.570;2023-07-31T04:54:02;18.58;;;4.03;;
13269;SDS011;6703;51.994;7.570;2023-07-31T04:56:30;23.50;;;4.33;;
13269;SDS011;6703;51.994;7.570;2023-07-31T04:58:58;16.67;;;3.83;;
13269;SDS011;6703;51.994;7.570;2023-07-31T05:01:27;17.65;;;4.60;;
13269;SDS011;6703;51.994;7.570;2023-07-31T05:03:55;19.27;;;4.78;;
13269;SDS011;6703;51.994;7.570;2023-07-31T05:06:23;17.17;;;4.68;;
13269;SDS011;6703;51.994;7.570;2023-07-31T05:08:52;24.83;;;4.55;;
13269;SDS011;6703;51.994;7.570;2023-07-31T05:11:20;25.60;;;4.45;;
13269;SDS011;6703;51.994;7.570;2023-07-31T05:13:48;25.10;;;4.33;;
13269;SDS011;6703;51.994;7.570;2023-07-31T05:16:16;21.73;;;4.85;;
13269;SDS011;6703;51.994;7.570;2023-07-31T05:18:44;26.08;;;5.10;;
13269;SDS011;6703;51.994;7.570;2023-07-31T05:21:11;20.98;;;5.22;;
13269;SDS011;6703;51.994;7.570;2023-07-31T05:23:39;26.70;;;4.68;;
13269;SDS011;6703;51.994;7.570;2023-07-31T05:26:08;18.52;;;4.90;;
13269;SDS011;6703;51.994;7.570;2023-07-31T05:28:36;22.65;;;4.05;;
13269;SDS011;6703;51.994;7.570;2023-07-31T05:31:05;26.58;;;5.05;;
13269;SDS011;6703;51.994;7.570;2023-07-31T05:33:33;15.68;;;4.28;;
13269;SDS011;6703;51.994;7.570;2023-07-31T05:36:01;20.63;;;4.82;;
13269;SDS011;6703;51.994;7.570;2023-07-31T05:38:29;17.48;;;3.70;;
13269;SDS011;6703;51.994;7.570;2023-07-31T05:40:57;26.35;;;4.70;;
13269;SDS011;6703;51.994;7.570;2023-07-31T05:43:26;21.58;;;4.80;;
13269;SDS011;6703;51.994;7.570;2023-07-31T05:45:54;19.40;;;4.55;;
13269;SDS011;6703;51.994;7.570;2023-07-31T05:48:21;27.65;;;6.03;;
13269;SDS011;6703;51.994;7.570;2023-07-31T05:50:49;28.65;;;5.90;;
13269;SDS011;6703;51.994;7.570;2023-07-31T05:53:17;31.20;;;6.03;;
13269;SDS011;6703;51.994;7.570;2023-07-31T05:55:45;20.40;;;4.90;;
13269;SDS011;6703;51.994;7.570;2023-07-31T05:58:12;22.73;;;5.47;;
13269;SDS011;6703;51.994;7.570;2023-07-31T06:00:41;25.55;;;5.20;;
13269;SDS011;6703;51.994;7.570;2023-07-31T06:03:09;21.02;;;5.20;;
13269;SDS011;6703;51.994;7.570;2023-07-31T06:05:37;18.95;;;5.13;;
13269;SDS011;6703;51.994;7.570;2023-07-31T06:08:05;19.23;;;4.80;;
13269;SDS011;6703;51.994;7.570;2023-07-31T06:10:33;27.30;;;5.80;;
13269;SDS011;6703;51.994;7.570;2023-07-31T06:13:01;25.77;;;5.65;;
13269;SDS011;6703;51.994;7.570;2023-07-31T06:15:28;27.40;;;5.90;;
13269;SDS011;6703;51.994;7.570;2023-07-31T06:17:57;25.43;;;5.73;;
13269;SDS011;6703;51.994;7.570;2023-07-31T06:20:28;21.17;;;5.85;;
13269;SDS011;6703;51.994;7.570;2023-07-31T06:22:56;26.25;;;5.70;;
13269;SDS011;6703;51.994;7.570;2023-07-31T06:25:24;27.83;;;5.63;;
13269;SDS011;6703;51.994;7.570;2023-07-31T06:27:52;27.10;;;5.68;;
13269;SDS011;6703;51.994;7.570;2023-07-31T06:30:19;26.02;;;6.68;;
13269;SDS011;6703;51.994;7.570;2023-07-31T06:32:47;22.67;;;5.75;;
13269;SDS011;6703;51.994;7.570;2023-07-31T06:35:16;20.42;;;5.20;;
13269;SDS011;6703;51.994;7.570;2023-07-31T06:37:45;26.43;;;5.97;;
13269;SDS011;6703;51.994;7.570;2023-07-31T06:40:12;23.08;;;5.32;;
13269;SDS011;6703;51.994;7.570;2023-07-31T06:42:40;18.63;;;5.40;;
13269;SDS011;6703;51.994;7.570;2023-07-31T06:45:08;20.10;;;5.18;;
13269;SDS011;6703;51.994;7.570;2023-07-31T06:47:37;19.83;;;5.00;;
13269;SDS011;6703;51.994;7.570;2023-07-31T06:50:05;19.25;;;4.97;;
13269;SDS011;6703;51.994;7.570;2023-07-31T06:52:34;18.63;;;5.13;;
13269;SDS011;6703;51.994;7.570;2023-07-31T06:55:02;22.23;;;5.10;;
13269;SDS011;6703;51.994;7.570;2023-07-31T06:57:31;24.40;;;5.43;;
13269;SDS011;6703;51.994;7.570;2023-07-31T06:59:59;20.17;;;5.40;;
13269;SDS011;6703;51.994;7.570;2023-07-31T07:02:27;21.35;;;5.40;;
13269;SDS011;6703;51.994;7.570;2023-07-31T07:04:55;26.52;;;5.15;;
13269;SDS011;6703;51.994;7.570;2023-07-31T07:07:23;22.25;;;5.35;;
13269;SDS011;6703;51.994;7.570;2023-07-31T07:09:52;22.00;;;5.70;;
13269;SDS011;6703;51.994;7.570;2023-07-31T07:12:19;23.08;;;5.88;;
13269;SDS011;6703;51.994;7.570;2023-07-31T07:14:47;27.13;;;5.17;;
13269;SDS011;6703;51.994;7.570;2023-07-31T07:17:16;18.65;;;4.63;;
13269;SDS011;6703;51.994;7.570;2023-07-31T07:19:44;21.27;;;4.65;;
13269;SDS011;6703;51.994;7.570;2023-07-31T07:22:13;17.13;;;4.32;;
13269;SDS011;6703;51.994;7.570;2023-07-31T07:24:41;19.42;;;4.70;;
13269;SDS011;6703;51.994;7.570;2023-07-31T07:27:10;15.45;;;4.95;;
13269;SDS011;6703;51.994;7.570;2023-07-31T07:29:38;15.43;;;4.20;;
13269;SDS011;6703;51.994;7.570;2023-07-31T07:32:06;14.23;;;4.03;;
13269;SDS011;6703;51.994;7.570;2023-07-31T07:34:34;15.00;;;4.78;;
13269;SDS011;6703;51.994;7.570;2023-07-31T07:37:02;17.85;;;4.00;;
13269;SDS011;6703;51.994;7.570;2023-07-31T07:39:30;15.02;;;3.70;;
13269;SDS011;6703;51.994;7.570;2023-07-31T07:41:58;15.95;;;4.10;;
13269;SDS011;6703;51.994;7.570;2023-07-31T07:44:27;12.53;;;4.03;;
13269;SDS011;6703;51.994;7.570;2023-07-31T07:46:55;14.60;;;4.00;;
13269;SDS011;6703;51.994;7.570;2023-07-31T07:49:23;12.15;;;3.63;;
13269;SDS011;6703;51.994;7.570;2023-07-31T07:51:51;9.60;;;3.28;;
13269;SDS011;6703;51.994;7.570;2023-07-31T07:54:19;10.30;;;3.72;;
13269;SDS011;6703;51.994;7.570;2023-07-31T07:56:47;9.20;;;3.40;;
13269;SDS011;6703;51.994;7.570;2023-07-31T07:59:16;7.22;;;3.55;;
13269;SDS011;6703;51.994;7.570;2023-07-31T08:01:45;9.15;;;3.55;;
13269;SDS011;6703;51.994;7.570;2023-07-31T08:04:12;10.57;;;3.97;;
13269;SDS011;6703;51.994;7.570;2023-07-31T08:06:40;9.18;;;4.30;;
13269;SDS011;6703;51.994;7.570;2023-07-31T08:09:08;7.83;;;3.33;;
13269;SDS011;6703;51.994;7.570;2023-07-31T08:11:36;6.63;;;3.03;;
13269;SDS011;6703;51.994;7.570;2023-07-31T08:14:04;8.45;;;3.85;;
13269;SDS011;6703;51.994;7.570;2023-07-31T08:16:32;6.88;;;3.13;;
13269;SDS011;6703;51.994;7.570;2023-07-31T08:19:01;7.85;;;3.08;;
13269;SDS011;6703;51.994;7.570;2023-07-31T08:21:29;5.45;;;3.05;;
13269;SDS011;6703;51.994;7.570;2023-07-31T08:23:57;6.28;;;2.75;;
13269;SDS011;6703;51.994;7.570;2023-07-31T08:26:25;5.93;;;3.10;;
13269;SDS011;6703;51.994;7.570;2023-07-31T08:29:05;5.00;;;3.20;;
13269;SDS011;6703;51.994;7.570;2023-07-31T08:31:33;13.23;;;3.63;;
13269;SDS011;6703;51.994;7.570;2023-07-31T08:34:02;8.75;;;3.10;;
13269;SDS011;6703;51.994;7.570;2023-07-31T08:36:30;5.95;;;3.08;;
13269;SDS011;6703;51.994;7.570;2023-07-31T08:38:58;9.63;;;3.60;;
13269;SDS011;6703;51.994;7.570;2023-07-31T08:41:26;6.80;;;3.33;;
13269;SDS011;6703;51.994;7.570;2023-07-31T08:43:54;4.68;;;2.90;;
13269;SDS011;6703;51.994;7.570;2023-07-31T08:46:23;6.10;;;2.50;;
13269;SDS011;6703;51.994;7.570;2023-07-31T08:48:52;8.45;;;3.05;;
13269;SDS011;6703;51.994;7.570;2023-07-31T08:51:22;6.63;;;3.05;;
13269;SDS011;6703;51.994;7.570;2023-07-31T08:53:50;6.47;;;3.00;;
13269;SDS011;6703;51.994;7.570;2023-07-31T08:56:18;5.78;;;2.72;;
13269;SDS011;6703;51.994;7.570;2023-07-31T08:58:46;6.28;;;2.58;;
13269;SDS011;6703;51.994;7.570;2023-07-31T09:01:14;3.72;;;2.22;;
13269;SDS011;6703;51.994;7.570;2023-07-31T09:03:42;3.88;;;2.20;;
13269;SDS011;6703;51.994;7.570;2023-07-31T09:06:11;5.68;;;2.10;;
13269;SDS011;6703;51.994;7.570;2023-07-31T09:08:42;4.10;;;2.20;;
13269;SDS011;6703;51.994;7.570;2023-07-31T09:11:10;3.03;;;1.92;;
13269;SDS011;6703;51.994;7.570;2023-07-31T09:13:37;3.75;;;2.03;;
13269;SDS011;6703;51.994;7.570;2023-07-31T09:16:08;7.45;;;2.47;;
13269;SDS011;6703;51.994;7.570;2023-07-31T09:18:45;4.00;;;2.83;;
13269;SDS011;6703;51.994;7.570;2023-07-31T09:21:20;5.13;;;2.40;;
13269;SDS011;6703;51.994;7.570;2023-07-31T09:23:50;5.22;;;2.70;;
13269;SDS011;6703;51.994;7.570;2023-07-31T09:26:30;5.85;;;2.45;;
13269;SDS011;6703;51.994;7.570;2023-07-31T09:28:58;5.43;;;2.80;;
13269;SDS011;6703;51.994;7.570;2023-07-31T09:31:33;6.25;;;3.00;;
13269;SDS011;6703;51.994;7.570;2023-07-31T09:34:02;5.50;;;2.90;;
13269;SDS011;6703;51.994;7.570;2023-07-31T09:36:30;5.17;;;2.83;;
13269;SDS011;6703;51.994;7.570;2023-07-31T09:39:02;5.50;;;2.80;;
13269;SDS011;6703;51.994;7.570;2023-07-31T09:41:31;7.25;;;3.50;;
13269;SDS011;6703;51.994;7.570;2023-07-31T09:43:58;6.07;;;3.08;;
13269;SDS011;6703;51.994;7.570;2023-07-31T09:46:26;7.03;;;2.90;;
13269;SDS011;6703;51.994;7.570;2023-07-31T09:49:02;8.73;;;3.20;;
13269;SDS011;6703;51.994;7.570;2023-07-31T09:51:35;5.82;;;3.00;;
13269;SDS011;6703;51.994;7.570;2023-07-31T09:54:12;6.97;;;3.65;;
13269;SDS011;6703;51.994;7.570;2023-07-31T09:56:41;4.80;;;3.30;;
13269;SDS011;6703;51.994;7.570;2023-07-31T09:59:11;6.13;;;3.30;;
13269;SDS011;6703;51.994;7.570;2023-07-31T10:01:40;7.75;;;3.55;;
13269;SDS011;6703;51.994;7.570;2023-07-31T10:04:09;5.90;;;3.38;;
13269;SDS011;6703;51.994;7.570;2023-07-31T10:06:37;6.10;;;3.22;;
13269;SDS011;6703;51.994;7.570;2023-07-31T10:09:07;5.88;;;2.78;;
13269;SDS011;6703;51.994;7.570;2023-07-31T10:11:37;5.45;;;2.65;;
13269;SDS011;6703;51.994;7.570;2023-07-31T10:14:05;3.60;;;2.60;;
13269;SDS011;6703;51.994;7.570;2023-07-31T10:16:34;3.53;;;2.20;;
13269;SDS011;6703;51.994;7.570;2023-07-31T10:19:07;4.18;;;2.10;;
13269;SDS011;6703;51.994;7.570;2023-07-31T10:21:36;5.53;;;2.42;;
13269;SDS011;6703;51.994;7.570;2023-07-31T10:24:05;5.70;;;2.13;;
13269;SDS011;6703;51.994;7.570;2023-07-31T10:26:32;4.27;;;2.40;;
13269;SDS011;6703;51.994;7.570;2023-07-31T10:29:02;5.07;;;2.60;;
13269;SDS011;6703;51.994;7.570;2023-07-31T10:31:30;3.92;;;2.30;;
13269;SDS011;6703;51.994;7.570;2023-07-31T10:33:58;4.70;;;2.67;;
13269;SDS011;6703;51.994;7.570;2023-07-31T10:36:27;5.23;;;2.83;;
13269;SDS011;6703;51.994;7.570;2023-07-31T10:38:55;4.28;;;2.70;;
13269;SDS011;6703;51.994;7.570;2023-07-31T10:41:28;6.50;;;2.95;;
13269;SDS011;6703;51.994;7.570;2023-07-31T10:43:57;4.23;;;2.70;;
13269;SDS011;6703;51.994;7.570;2023-07-31T10:46:26;5.40;;;2.70;;
13269;SDS011;6703;51.994;7.570;2023-07-31T10:48:59;5.93;;;3.20;;
13269;SDS011;6703;51.994;7.570;2023-07-31T10:51:32;4.70;;;3.05;;
13269;SDS011;6703;51.994;7.570;2023-07-31T10:54:10;6.20;;;3.42;;
13269;SDS011;6703;51.994;7.570;2023-07-31T10:56:39;4.00;;;3.00;;
13269;SDS011;6703;51.994;7.570;2023-07-31T10:59:07;6.33;;;3.50;;
13269;SDS011;6703;51.994;7.570;2023-07-31T11:01:53;8.33;;;2.90;;
13269;SDS011;6703;51.994;7.570;2023-07-31T11:04:24;4.25;;;2.97;;
13269;SDS011;6703;51.994;7.570;2023-07-31T11:06:57;4.13;;;2.60;;
13269;SDS011;6703;51.994;7.570;2023-07-31T11:09:27;3.70;;;2.40;;
13269;SDS011;6703;51.994;7.570;2023-07-31T11:11:56;7.93;;;2.80;;
13269;SDS011;6703;51.994;7.570;2023-07-31T11:14:24;3.97;;;2.40;;
13269;SDS011;6703;51.994;7.570;2023-07-31T11:16:53;5.13;;;2.42;;
13269;SDS011;6703;51.994;7.570;2023-07-31T11:19:21;4.35;;;2.20;;
13269;SDS011;6703;51.994;7.570;2023-07-31T11:21:50;5.57;;;2.30;;
13269;SDS011;6703;51.994;7.570;2023-07-31T11:24:19;3.90;;;1.92;;
13269;SDS011;6703;51.994;7.570;2023-07-31T11:26:50;4.15;;;2.45;;
13269;SDS011;6703;51.994;7.570;2023-07-31T11:29:19;5.87;;;2.63;;
13269;SDS011;6703;51.994;7.570;2023-07-31T11:31:47;4.65;;;2.40;;
13269;SDS011;6703;51.994;7.570;2023-07-31T11:34:16;5.38;;;2.72;;
13269;SDS011;6703;51.994;7.570;2023-07-31T11:36:52;4.80;;;2.92;;
13269;SDS011;6703;51.994;7.570;2023-07-31T11:39:21;4.30;;;2.33;;
13269;SDS011;6703;51.994;7.570;2023-07-31T11:41:49;5.47;;;2.38;;
13269;SDS011;6703;51.994;7.570;2023-07-31T11:44:16;5.03;;;2.67;;
13269;SDS011;6703;51.994;7.570;2023-07-31T11:46:55;4.30;;;2.25;;
13269;SDS011;6703;51.994;7.570;2023-07-31T11:49:45;5.00;;;2.50;;
13269;SDS011;6703;51.994;7.570;2023-07-31T11:52:12;4.40;;;2.30;;
13269;SDS011;6703;51.994;7.570;2023-07-31T11:54:41;5.63;;;2.13;;
13269;SDS011;6703;51.994;7.570;2023-07-31T11:57:08;7.40;;;2.70;;
13269;SDS011;6703;51.994;7.570;2023-07-31T11:59:37;5.55;;;2.17;;
13269;SDS011;6703;51.994;7.570;2023-07-31T12:02:05;3.15;;;2.10;;
13269;SDS011;6703;51.994;7.570;2023-07-31T12:04:33;4.93;;;2.50;;
13269;SDS011;6703;51.994;7.570;2023-07-31T12:07:02;4.50;;;2.80;;
13269;SDS011;6703;51.994;7.570;2023-07-31T12:09:31;4.97;;;2.80;;
13269;SDS011;6703;51.994;7.570;2023-07-31T12:11:58;5.53;;;2.93;;
13269;SDS011;6703;51.994;7.570;2023-07-31T12:14:27;8.70;;;3.27;;
13269;SDS011;6703;51.994;7.570;2023-07-31T12:16:57;6.70;;;2.92;;
13269;SDS011;6703;51.994;7.570;2023-07-31T12:19:26;8.00;;;3.30;;
13269;SDS011;6703;51.994;7.570;2023-07-31T12:21:57;5.70;;;3.10;;
13269;SDS011;6703;51.994;7.570;2023-07-31T12:24:27;7.50;;;3.58;;
13269;SDS011;6703;51.994;7.570;2023-07-31T12:26:55;6.15;;;3.70;;
13269;SDS011;6703;51.994;7.570;2023-07-31T12:29:22;6.40;;;3.55;;
13269;SDS011;6703;51.994;7.570;2023-07-31T12:31:50;7.50;;;3.80;;
13269;SDS011;6703;51.994;7.570;2023-07-31T12:34:19;7.10;;;3.72;;
13269;SDS011;6703;51.994;7.570;2023-07-31T12:36:47;10.60;;;3.03;;
13269;SDS011;6703;51.994;7.570;2023-07-31T12:39:16;6.65;;;2.92;;
13269;SDS011;6703;51.994;7.570;2023-07-31T12:41:45;5.37;;;2.87;;
13269;SDS011;6703;51.994;7.570;2023-07-31T12:44:13;4.05;;;2.42;;
13269;SDS011;6703;51.994;7.570;2023-07-31T12:46:40;8.20;;;2.47;;
13269;SDS011;6703;51.994;7.570;2023-07-31T12:49:09;5.60;;;2.20;;
13269;SDS011;6703;51.994;7.570;2023-07-31T12:51:36;6.30;;;2.42;;
13269;SDS011;6703;51.994;7.570;2023-07-31T12:54:04;12.80;;;2.60;;
13269;SDS011;6703;51.994;7.570;2023-07-31T12:56:33;4.53;;;2.00;;
13269;SDS011;6703;51.994;7.570;2023-07-31T12:59:03;5.47;;;2.07;;
13269;SDS011;6703;51.994;7.570;2023-07-31T13:01:31;4.90;;;1.70;;
13269;SDS011;6703;51.994;7.570;2023-07-31T13:03:58;3.80;;;1.83;;
13269;SDS011;6703;51.994;7.570;2023-07-31T13:06:26;3.13;;;1.60;;
13269;SDS011;6703;51.994;7.570;2023-07-31T13:08:54;3.22;;;1.90;;
13269;SDS011;6703;51.994;7.570;2023-07-31T13:11:22;8.70;;;2.30;;
13269;SDS011;6703;51.994;7.570;2023-07-31T13:13:50;3.17;;;2.00;;
13269;SDS011;6703;51.994;7.570;2023-07-31T13:16:19;3.55;;;1.90;;
13269;SDS011;6703;51.994;7.570;2023-07-31T13:18:46;5.03;;;1.70;;
13269;SDS011;6703;51.994;7.570;2023-07-31T13:21:13;4.45;;;1.90;;
13269;SDS011;6703;51.994;7.570;2023-07-31T13:23:41;5.10;;;1.95;;
13269;SDS011;6703;51.994;7.570;2023-07-31T13:26:09;6.93;;;2.20;;
13269;SDS011;6703;51.994;7.570;2023-07-31T13:28:37;5.60;;;2.30;;
13269;SDS011;6703;51.994;7.570;2023-07-31T13:31:05;4.75;;;2.20;;
13269;SDS011;6703;51.994;7.570;2023-07-31T13:33:34;4.13;;;2.28;;
13269;SDS011;6703;51.994;7.570;2023-07-31T13:36:05;3.55;;;2.30;;
13269;SDS011;6703;51.994;7.570;2023-07-31T13:38:33;3.47;;;2.40;;
13269;SDS011;6703;51.994;7.570;2023-07-31T13:41:00;3.63;;;2.10;;
13269;SDS011;6703;51.994;7.570;2023-07-31T13:43:28;4.13;;;2.38;;
13269;SDS011;6703;51.994;7.570;2023-07-31T13:45:56;7.80;;;2.80;;
13269;SDS011;6703;51.994;7.570;2023-07-31T13:48:23;4.90;;;2.45;;
13269;SDS011;6703;51.994;7.570;2023-07-31T13:50:52;5.72;;;2.30;;
13269;SDS011;6703;51.994;7.570;2023-07-31T13:53:20;4.10;;;2.38;;
13269;SDS011;6703;51.994;7.570;2023-07-31T13:55:48;7.90;;;2.63;;
13269;SDS011;6703;51.994;7.570;2023-07-31T13:58:17;4.00;;;2.00;;
13269;SDS011;6703;51.994;7.570;2023-07-31T14:00:44;5.05;;;2.42;;
13269;SDS011;6703;51.994;7.570;2023-07-31T14:03:12;4.53;;;2.30;;
13269;SDS011;6703;51.994;7.570;2023-07-31T14:05:40;4.53;;;2.10;;
13269;SDS011;6703;51.994;7.570;2023-07-31T14:08:09;4.05;;;2.00;;
13269;SDS011;6703;51.994;7.570;2023-07-31T14:10:37;2.85;;;2.00;;
13269;SDS011;6703;51.994;7.570;2023-07-31T14:13:04;5.22;;;2.15;;
13269;SDS011;6703;51.994;7.570;2023-07-31T14:15:32;7.35;;;2.60;;
13269;SDS011;6703;51.994;7.570;2023-07-31T14:18:02;4.25;;;2.30;;
13269;SDS011;6703;51.994;7.570;2023-07-31T14:20:30;6.45;;;2.78;;
13269;SDS011;6703;51.994;7.570;2023-07-31T14:22:58;5.70;;;2.67;;
13269;SDS011;6703;51.994;7.570;2023-07-31T14:25:27;6.55;;;3.08;;
13269;SDS011;6703;51.994;7.570;2023-07-31T14:28:36;5.97;;;3.00;;
13269;SDS011;6703;51.994;7.570;2023-07-31T14:31:05;5.20;;;2.80;;
13269;SDS011;6703;51.994;7.570;2023-07-31T14:33:32;5.50;;;2.70;;
13269;SDS011;6703;51.994;7.570;2023-07-31T14:36:00;8.55;;;2.65;;
13269;SDS011;6703;51.994;7.570;2023-07-31T14:38:28;6.68;;;2.67;;
13269;SDS011;6703;51.994;7.570;2023-07-31T14:40:57;6.10;;;2.97;;
13269;SDS011;6703;51.994;7.570;2023-07-31T14:43:25;4.10;;;3.00;;
13269;SDS011;6703;51.994;7.570;2023-07-31T14:45:53;5.47;;;2.83;;
13269;SDS011;6703;51.994;7.570;2023-07-31T14:48:24;4.60;;;2.70;;
13269;SDS011;6703;51.994;7.570;2023-07-31T14:50:52;6.40;;;2.95;;
13269;SDS011;6703;51.994;7.570;2023-07-31T14:53:19;6.03;;;3.13;;
13269;SDS011;6703;51.994;7.570;2023-07-31T14:55:47;7.70;;;3.20;;
13269;SDS011;6703;51.994;7.570;2023-07-31T14:58:16;5.00;;;2.92;;
13269;SDS011;6703;51.994;7.570;2023-07-31T15:00:46;7.20;;;3.65;;
13269;SDS011;6703;51.994;7.570;2023-07-31T15:03:14;7.22;;;3.40;;
13269;SDS011;6703;51.994;7.570;2023-07-31T15:05:42;7.60;;;3.90;;
13269;SDS011;6703;51.994;7.570;2023-07-31T15:08:09;8.55;;;4.78;;